Time;durP1;ratioP1;P1;durP2;ratioP2;P2;SDS_P1;SDS_P2;PMS_P1;PMS_P2;Temp;Humidity;BMP_temperature;BMP_pressure;BME280_temperature;BME280_humidity;BME280_pressure;Samples;Min_cycle;Max_cycle;Signal;HPM_P1;HPM_P2
2022/01/25 00:33:28;;;;;;;;;;;-0.70;99.90;;;;;;4992546;28;19929;-87
2022/01/25 00:35:54;;;;;;;;;;;-0.80;99.90;;;;;;4983608;28;20399;-86
2022/01/25 00:38:20;;;;;;;;;;;-0.80;99.90;;;;;;4998832;28;19924;-89
2022/01/25 00:40:45;;;;;;;;;;;-0.70;99.90;;;;;;5001393;28;19924;-86
2022/01/25 00:43:11;;;;;;;;;;;-0.60;99.90;;;;;;5000027;28;20376;-87
2022/01/25 00:45:36;;;;;;;;;;;-0.70;99.90;;;;;;4999070;28;19932;-86
2022/01/25 00:48:04;;;;;;;;;;;-0.60;99.90;;;;;;5001386;28;19925;-86
2022/01/25 00:50:37;;;;;;;;;;;-0.80;99.90;;;;;;4997148;28;19924;-88
2022/01/25 00:55:31;;;;;;;;;;;-0.90;99.90;;;;;;4998700;28;20236;-87
2022/01/25 00:57:56;;;;;;;;;;;-1.00;99.90;;;;;;4998508;28;20332;-88
2022/01/25 01:00:23;;;;;;;;;;;-1.10;99.90;;;;;;4980255;28;20369;-86
2022/01/25 01:02:49;;;;;;;;;;;-1.10;99.90;;;;;;4998402;28;19921;-86
2022/01/25 01:05:15;;;;;;;;;;;-1.20;99.90;;;;;;5001665;28;20389;-86
2022/01/25 01:07:41;;;;;;;;;;;-1.10;99.90;;;;;;5000581;28;19921;-89
2022/01/25 01:10:08;;;;;;;;;;;-1.10;99.90;;;;;;4981256;28;19960;-87
2022/01/25 01:15:18;;;;;;;;;;;-1.10;99.90;;;;;;4995464;28;19913;-87
2022/01/25 01:32:18;;;;;;;;;;;-1.30;99.90;;;;;;4996669;28;20412;-90
2022/01/25 01:42:39;;;;;;;;;;;-1.50;99.90;;;;;;4999807;28;19982;-88
2022/01/25 01:47:37;;;;;;;;;;;-1.40;99.90;;;;;;5002500;28;20349;-87
2022/01/25 01:50:09;;;;;;;;;;;-1.40;99.90;;;;;;4996100;28;19914;-88
2022/01/25 01:52:35;;;;;;;;;;;-1.40;99.90;;;;;;4983740;28;19920;-88
2022/01/25 01:55:00;;;;;;;;;;;-1.30;99.90;;;;;;4998173;28;20381;-87
2022/01/25 01:57:26;;;;;;;;;;;-1.30;99.90;;;;;;4984101;28;19924;-87
2022/01/25 01:59:56;;;;;;;;;;;-1.30;99.90;;;;;;4997183;28;19922;-87
2022/01/25 02:02:22;;;;;;;;;;;-1.30;99.90;;;;;;4999955;28;19933;-86
2022/01/25 02:04:47;;;;;;;;;;;-1.40;99.90;;;;;;5002268;28;19929;-87
2022/01/25 02:07:13;;;;;;;;;;;-1.30;99.90;;;;;;4987309;28;19963;-86
2022/01/25 02:09:39;;;;;;;;;;;-1.20;99.90;;;;;;4989704;28;19918;-86
2022/01/25 02:12:05;;;;;;;;;;;-1.40;99.90;;;;;;4982508;28;20031;-85
2022/01/25 02:14:33;;;;;;;;;;;-1.40;99.90;;;;;;5001364;28;19913;-85
2022/01/25 02:22:31;;;;;;;;;;;-1.50;99.90;;;;;;5000840;28;20384;-87
2022/01/25 02:24:57;;;;;;;;;;;-1.60;99.90;;;;;;4989030;28;19983;-87
2022/01/25 02:27:22;;;;;;;;;;;-1.60;99.90;;;;;;4982860;28;20004;-89
2022/01/25 02:29:48;;;;;;;;;;;-1.60;99.90;;;;;;4985718;28;19914;-86
2022/01/25 02:32:14;;;;;;;;;;;-1.40;99.90;;;;;;4979448;28;19925;-88
2022/01/25 02:34:39;;;;;;;;;;;-1.30;99.90;;;;;;4985893;28;19913;-87
2022/01/25 02:37:07;;;;;;;;;;;-1.30;99.90;;;;;;4983774;28;20400;-87
2022/01/25 02:39:33;;;;;;;;;;;-1.40;99.90;;;;;;5004337;28;20050;-87
2022/01/25 02:41:59;;;;;;;;;;;-1.50;99.90;;;;;;4997324;28;19917;-88
2022/01/25 02:44:27;;;;;;;;;;;-1.50;99.90;;;;;;4996855;28;20771;-86
2022/01/25 02:49:19;;;;;;;;;;;-1.60;99.90;;;;;;5002943;28;19936;-87
2022/01/25 02:51:45;;;;;;;;;;;-1.60;99.90;;;;;;4983018;28;19913;-87
2022/01/25 02:54:12;;;;;;;;;;;-1.60;99.90;;;;;;4998468;28;19958;-89
2022/01/25 02:56:38;;;;;;;;;;;-1.60;99.90;;;;;;5004377;28;19918;-87
2022/01/25 02:59:05;;;;;;;;;;;-1.60;99.90;;;;;;4986582;28;19925;-87
2022/01/25 03:01:31;;;;;;;;;;;-1.60;99.90;;;;;;5000542;28;20535;-87
2022/01/25 03:03:56;;;;;;;;;;;-1.50;99.90;;;;;;5001115;28;19961;-89
2022/01/25 03:06:23;;;;;;;;;;;-1.60;99.90;;;;;;4983025;28;19972;-86
2022/01/25 03:08:49;;;;;;;;;;;-1.70;99.90;;;;;;5002423;28;19921;-87
2022/01/25 03:11:15;;;;;;;;;;;-1.70;99.90;;;;;;4984372;28;19925;-87
2022/01/25 03:13:51;;;;;;;;;;;-1.60;99.90;;;;;;5002086;28;19920;-88
2022/01/25 03:16:41;;;;;;;;;;;-1.60;99.90;;;;;;4984577;28;19956;-86
2022/01/25 03:19:40;;;;;;;;;;;-1.70;99.90;;;;;;5001274;28;19913;-88
2022/01/25 03:21:58;;;;;;;;;;;-1.70;99.90;;;;;;5000862;28;19996;-86
2022/01/25 03:24:24;;;;;;;;;;;-1.60;99.90;;;;;;5003699;28;19922;-87
2022/01/25 03:26:50;;;;;;;;;;;-1.60;99.90;;;;;;5002965;28;19917;-88
2022/01/25 03:29:15;;;;;;;;;;;-1.50;99.90;;;;;;5001928;28;20014;-85
2022/01/25 03:31:41;;;;;;;;;;;-1.50;99.90;;;;;;4984345;28;19917;-88
2022/01/25 03:34:06;;;;;;;;;;;-1.60;99.90;;;;;;4997853;28;19921;-87
2022/01/25 03:36:32;;;;;;;;;;;-1.60;99.90;;;;;;4998852;28;19956;-86
2022/01/25 03:38:58;;;;;;;;;;;-1.60;99.90;;;;;;4985497;28;19921;-86
2022/01/25 03:41:24;;;;;;;;;;;-1.60;99.90;;;;;;4997470;28;19968;-88
2022/01/25 03:43:55;;;;;;;;;;;-1.60;99.90;;;;;;4997867;28;19921;-86
2022/01/25 03:46:34;;;;;;;;;;;-1.70;99.90;;;;;;5001171;28;19917;-86
2022/01/25 03:51:43;;;;;;;;;;;-1.60;99.90;;;;;;4998283;28;19921;-89
2022/01/25 03:54:09;;;;;;;;;;;-1.70;99.90;;;;;;4999327;28;19914;-88
2022/01/25 03:56:35;;;;;;;;;;;-1.80;99.90;;;;;;5003712;28;19913;-87
2022/01/25 03:59:01;;;;;;;;;;;-1.70;99.90;;;;;;5000705;28;20380;-87
2022/01/25 04:01:26;;;;;;;;;;;-1.70;99.90;;;;;;4981529;28;20389;-87
2022/01/25 04:04:01;;;;;;;;;;;-1.70;99.90;;;;;;5000299;28;19925;-87
2022/01/25 04:06:30;;;;;;;;;;;-1.60;99.90;;;;;;4986444;28;20012;-88
2022/01/25 04:08:56;;;;;;;;;;;-1.60;99.90;;;;;;5000355;28;19957;-86
2022/01/25 04:11:22;;;;;;;;;;;-1.50;99.90;;;;;;4981274;28;19952;-87
2022/01/25 04:13:51;;;;;;;;;;;-1.40;99.90;;;;;;5002053;28;19917;-87
2022/01/25 04:16:21;;;;;;;;;;;-1.80;99.90;;;;;;4981879;28;20044;-85
2022/01/25 04:26:33;;;;;;;;;;;-1.60;99.90;;;;;;4996317;28;19984;-87
2022/01/25 04:28:59;;;;;;;;;;;-1.60;99.90;;;;;;4999991;28;20381;-85
2022/01/25 04:31:25;;;;;;;;;;;-1.50;99.90;;;;;;4980838;28;20397;-89
2022/01/25 04:34:10;;;;;;;;;;;-1.60;99.90;;;;;;4983823;28;19914;-88
2022/01/25 04:50:07;;;;;;;;;;;-1.60;99.90;;;;;;4994822;28;19928;-89
2022/01/25 04:52:40;;;;;;;;;;;-1.70;99.90;;;;;;5000920;28;19918;-86
2022/01/25 04:55:21;;;;;;;;;;;-1.70;99.90;;;;;;4994245;28;19976;-85
2022/01/25 04:57:58;;;;;;;;;;;-1.70;99.90;;;;;;5002803;28;20224;-86
2022/01/25 05:00:25;;;;;;;;;;;-1.90;99.90;;;;;;5003782;28;19921;-87
2022/01/25 05:02:55;;;;;;;;;;;-1.90;99.90;;;;;;5002256;28;19921;-87
2022/01/25 05:05:35;;;;;;;;;;;-1.90;99.90;;;;;;4988682;28;19930;-87
2022/01/25 05:10:29;;;;;;;;;;;-1.90;99.90;;;;;;4998842;28;19926;-86
2022/01/25 05:13:14;;;;;;;;;;;-1.90;99.90;;;;;;4964180;28;19922;-86
2022/01/25 05:18:16;;;;;;;;;;;-1.90;99.90;;;;;;5005583;28;19917;-87
2022/01/25 05:23:26;;;;;;;;;;;-1.80;99.90;;;;;;5000385;28;19928;-87
2022/01/25 05:25:51;;;;;;;;;;;-1.80;99.90;;;;;;4983618;28;19926;-86
2022/01/25 05:28:17;;;;;;;;;;;-1.70;99.90;;;;;;4999505;28;20293;-88
2022/01/25 05:30:43;;;;;;;;;;;-1.70;99.90;;;;;;4977932;28;19957;-86
2022/01/25 05:33:08;;;;;;;;;;;-1.90;99.90;;;;;;4984137;28;19932;-88
2022/01/25 05:35:34;;;;;;;;;;;-1.90;99.90;;;;;;4979305;28;20360;-87
2022/01/25 05:38:00;;;;;;;;;;;-1.90;99.90;;;;;;4982197;28;19933;-88
2022/01/25 05:40:55;;;;;;;;;;;-1.80;99.90;;;;;;4996609;28;20014;-87
2022/01/25 05:48:16;;;;;;;;;;;-1.60;99.90;;;;;;4997452;28;19917;-87
2022/01/25 05:50:41;;;;;;;;;;;-1.60;99.90;;;;;;4977163;28;20461;-88
2022/01/25 05:53:07;;;;;;;;;;;-1.60;99.90;;;;;;4962865;28;19933;-86
2022/01/25 05:55:32;;;;;;;;;;;-1.70;99.90;;;;;;4984351;28;20349;-87
2022/01/25 05:57:58;;;;;;;;;;;-1.80;99.90;;;;;;4998107;28;19913;-88
2022/01/25 06:00:23;;;;;;;;;;;-1.90;99.90;;;;;;4991482;28;19930;-86
2022/01/25 06:02:54;;;;;;;;;;;-1.90;99.90;;;;;;4996877;28;19983;-86
2022/01/25 06:05:19;;;;;;;;;;;-1.80;99.90;;;;;;4982963;28;19925;-86
2022/01/25 06:07:45;;;;;;;;;;;-1.70;99.90;;;;;;4998770;28;19925;-87
2022/01/25 06:10:10;;;;;;;;;;;-1.70;99.90;;;;;;4980162;28;19925;-87
2022/01/25 06:12:36;;;;;;;;;;;-1.70;99.90;;;;;;4997811;28;19917;-89
2022/01/25 06:15:04;;;;;;;;;;;-1.80;99.90;;;;;;4995332;28;20060;-88
2022/01/25 06:17:29;;;;;;;;;;;-1.80;99.90;;;;;;4975829;28;19928;-87
2022/01/25 06:19:55;;;;;;;;;;;-1.70;99.90;;;;;;4977655;28;19918;-88
2022/01/25 06:22:22;;;;;;;;;;;-1.60;99.90;;;;;;4988845;28;19993;-86
2022/01/25 06:24:47;;;;;;;;;;;-1.60;99.90;;;;;;4984569;28;20401;-87
2022/01/25 06:27:13;;;;;;;;;;;-1.60;99.90;;;;;;4981129;28;19933;-87
2022/01/25 06:29:41;;;;;;;;;;;-1.60;99.90;;;;;;4996003;28;19914;-86
2022/01/25 06:32:07;;;;;;;;;;;-1.60;99.90;;;;;;4993098;28;20008;-88
2022/01/25 06:34:33;;;;;;;;;;;-1.60;99.90;;;;;;4994519;28;19921;-88
2022/01/25 06:36:59;;;;;;;;;;;-1.60;99.90;;;;;;4994363;28;19917;-87
2022/01/25 06:39:24;;;;;;;;;;;-1.60;99.90;;;;;;4997308;28;19918;-86
2022/01/25 06:41:51;;;;;;;;;;;-1.60;99.90;;;;;;4982147;28;19957;-87
2022/01/25 06:44:17;;;;;;;;;;;-1.60;99.90;;;;;;4974422;28;19928;-87
2022/01/25 06:46:42;;;;;;;;;;;-1.60;99.90;;;;;;4995092;28;20300;-86
2022/01/25 06:49:08;;;;;;;;;;;-1.60;99.90;;;;;;5004305;28;19933;-85
2022/01/25 06:51:33;;;;;;;;;;;-1.50;99.90;;;;;;5000382;28;20001;-87
2022/01/25 06:53:59;;;;;;;;;;;-1.50;99.90;;;;;;4982073;28;19924;-86
2022/01/25 06:56:25;;;;;;;;;;;-1.60;99.90;;;;;;4999825;28;19913;-87
2022/01/25 06:58:50;;;;;;;;;;;-1.50;99.90;;;;;;4995439;28;20310;-85
2022/01/25 07:01:17;;;;;;;;;;;-1.70;99.90;;;;;;5003166;28;19929;-86
2022/01/25 07:03:43;;;;;;;;;;;-1.60;99.90;;;;;;4973867;28;20043;-89
2022/01/25 07:06:08;;;;;;;;;;;-1.60;99.90;;;;;;4957153;28;19929;-89
2022/01/25 07:08:34;;;;;;;;;;;-1.60;99.90;;;;;;4959247;28;19926;-88
2022/01/25 07:11:00;;;;;;;;;;;-1.50;99.90;;;;;;4952324;28;19919;-87
2022/01/25 07:13:25;;;;;;;;;;;-1.50;99.90;;;;;;4952003;28;19972;-87
2022/01/25 07:15:51;;;;;;;;;;;-1.60;99.90;;;;;;4955396;28;19919;-85
2022/01/25 07:18:18;;;;;;;;;;;-1.50;99.90;;;;;;4961559;28;20302;-85
2022/01/25 07:20:43;;;;;;;;;;;-1.50;99.90;;;;;;4967159;28;19930;-87
2022/01/25 07:23:09;;;;;;;;;;;-1.50;99.90;;;;;;4963541;28;19922;-85
2022/01/25 07:25:34;;;;;;;;;;;-1.40;99.90;;;;;;4946967;28;20290;-86
2022/01/25 07:28:00;;;;;;;;;;;-1.30;99.90;;;;;;4955030;28;19928;-87
2022/01/25 07:30:26;;;;;;;;;;;-1.30;99.90;;;;;;4953646;28;19969;-86
2022/01/25 07:32:51;;;;;;;;;;;-1.30;99.90;;;;;;4954632;28;20008;-87
2022/01/25 07:35:17;;;;;;;;;;;-1.30;99.90;;;;;;4956874;28;20440;-88
2022/01/25 07:37:42;;;;;;;;;;;-1.20;99.90;;;;;;4953878;28;20560;-85
2022/01/25 07:40:08;;;;;;;;;;;-1.20;99.90;;;;;;4956508;28;19922;-86
2022/01/25 07:42:36;;;;;;;;;;;-1.20;99.90;;;;;;4959199;28;19923;-86
2022/01/25 07:45:07;;;;;;;;;;;-1.30;99.90;;;;;;4960547;28;19974;-89
2022/01/25 07:47:33;;;;;;;;;;;-1.20;99.90;;;;;;4950177;28;19915;-86
2022/01/25 07:49:59;;;;;;;;;;;-1.10;99.90;;;;;;4954352;28;19918;-88
2022/01/25 07:52:24;;;;;;;;;;;-1.10;99.90;;;;;;4955968;28;19989;-87
2022/01/25 07:54:50;;;;;;;;;;;-1.00;99.90;;;;;;4961334;28;19938;-88
2022/01/25 07:57:15;;;;;;;;;;;-1.10;99.90;;;;;;4951454;29;20298;-87
2022/01/25 07:59:41;;;;;;;;;;;-1.10;99.90;;;;;;4955499;28;19954;-87
2022/01/25 08:02:07;;;;;;;;;;;-1.10;99.90;;;;;;4956634;28;20604;-87
2022/01/25 08:04:33;;;;;;;;;;;-1.00;99.90;;;;;;4981177;28;19929;-89
2022/01/25 08:06:58;;;;;;;;;;;-0.90;99.90;;;;;;4998326;28;19918;-85
2022/01/25 08:09:24;;;;;;;;;;;-0.90;99.90;;;;;;4993470;28;19922;-89
2022/01/25 08:11:49;;;;;;;;;;;-0.90;99.90;;;;;;4981251;28;19921;-88
2022/01/25 08:14:18;;;;;;;;;;;-1.00;99.90;;;;;;5003445;28;20330;-84
2022/01/25 08:16:45;;;;;;;;;;;-1.00;99.90;;;;;;4992732;28;19950;-87
2022/01/25 08:19:11;;;;;;;;;;;-0.90;99.90;;;;;;4991986;28;20448;-88
2022/01/25 08:21:37;;;;;;;;;;;-1.00;99.90;;;;;;4993988;28;19914;-86
2022/01/25 08:24:03;;;;;;;;;;;-1.10;99.90;;;;;;5001573;28;19924;-85
2022/01/25 08:26:29;;;;;;;;;;;-1.00;99.90;;;;;;5001944;28;19943;-85
2022/01/25 08:28:55;;;;;;;;;;;-1.20;99.90;;;;;;4974991;28;19949;-86
2022/01/25 08:31:21;;;;;;;;;;;-1.00;99.90;;;;;;4988721;28;19988;-85
2022/01/25 08:33:46;;;;;;;;;;;-1.00;99.90;;;;;;4974944;28;20465;-86
2022/01/25 08:36:12;;;;;;;;;;;-1.00;99.90;;;;;;4991653;28;20036;-86
2022/01/25 08:38:38;;;;;;;;;;;-0.90;99.90;;;;;;4989547;28;19922;-88
2022/01/25 08:41:06;;;;;;;;;;;-0.90;99.90;;;;;;4990833;28;19922;-87
2022/01/25 08:43:34;;;;;;;;;;;-0.90;99.90;;;;;;4987197;28;19975;-87
2022/01/25 08:46:01;;;;;;;;;;;-0.90;99.90;;;;;;4974355;28;19995;-86
2022/01/25 08:48:26;;;;;;;;;;;-0.90;99.90;;;;;;4988740;28;19947;-86
2022/01/25 08:50:52;;;;;;;;;;;-0.80;99.90;;;;;;4971941;28;19914;-88
2022/01/25 08:53:18;;;;;;;;;;;-0.70;99.90;;;;;;4988329;28;19928;-90
2022/01/25 08:55:43;;;;;;;;;;;-0.70;99.90;;;;;;4991965;28;19988;-88
2022/01/25 08:58:09;;;;;;;;;;;-0.70;99.90;;;;;;4983635;28;20247;-87
2022/01/25 09:00:35;;;;;;;;;;;-0.60;99.90;;;;;;4994915;28;19925;-86
2022/01/25 09:03:00;;;;;;;;;;;-0.50;99.90;;;;;;4974628;28;19926;-85
2022/01/25 09:05:26;;;;;;;;;;;-0.60;99.90;;;;;;4992905;28;20409;-85
2022/01/25 09:07:52;;;;;;;;;;;-0.50;99.90;;;;;;4991901;28;20354;-88
2022/01/25 09:10:18;;;;;;;;;;;-0.50;99.90;;;;;;4975182;28;19924;-87
2022/01/25 09:12:43;;;;;;;;;;;-0.40;99.90;;;;;;4981706;28;19914;-87
2022/01/25 09:15:09;;;;;;;;;;;-0.40;99.90;;;;;;4988806;28;20017;-86
2022/01/25 09:17:34;;;;;;;;;;;-0.30;99.90;;;;;;4974260;28;19968;-87
2022/01/25 09:20:02;;;;;;;;;;;-0.10;99.90;;;;;;4999468;28;19922;-89
2022/01/25 09:22:27;;;;;;;;;;;-0.10;99.90;;;;;;4994949;28;19921;-87
2022/01/25 09:24:53;;;;;;;;;;;-0.10;99.90;;;;;;4996662;28;19955;-87
2022/01/25 09:27:19;;;;;;;;;;;-0.20;99.90;;;;;;5001777;28;20569;-88
2022/01/25 09:29:44;;;;;;;;;;;-0.20;99.90;;;;;;4979397;28;20009;-85
2022/01/25 09:32:10;;;;;;;;;;;-0.20;99.90;;;;;;4996209;28;19921;-87
2022/01/25 09:34:35;;;;;;;;;;;0.00;99.90;;;;;;4978627;28;19922;-87
2022/01/25 09:37:03;;;;;;;;;;;-0.20;99.90;;;;;;4975951;28;20478;-87
2022/01/25 09:39:28;;;;;;;;;;;-0.10;99.90;;;;;;4979733;28;19925;-88
2022/01/25 09:41:55;;;;;;;;;;;-0.10;99.90;;;;;;5003559;28;19936;-87
2022/01/25 09:44:20;;;;;;;;;;;-0.10;99.90;;;;;;4995063;28;19921;-88
2022/01/25 09:46:46;;;;;;;;;;;-0.10;99.90;;;;;;4989538;28;19960;-87
2022/01/25 09:49:11;;;;;;;;;;;-0.10;99.90;;;;;;5008357;28;19961;-87
2022/01/25 09:51:41;;;;;;;;;;;-0.10;99.90;;;;;;5013204;28;19905;-88
2022/01/25 09:54:07;;;;;;;;;;;0.00;99.90;;;;;;4992538;28;19918;-86
2022/01/25 09:56:33;;;;;;;;;;;-0.10;99.90;;;;;;5006776;28;19969;-87
2022/01/25 09:58:59;;;;;;;;;;;0.10;99.90;;;;;;5006658;28;19945;-88
2022/01/25 10:01:26;;;;;;;;;;;0.00;99.90;;;;;;4974942;28;19972;-87
2022/01/25 10:03:51;;;;;;;;;;;0.20;99.90;;;;;;4997349;28;20013;-86
2022/01/25 10:06:20;;;;;;;;;;;0.50;99.90;;;;;;4999705;28;19961;-89
2022/01/25 10:08:49;;;;;;;;;;;0.60;99.90;;;;;;4993228;28;19941;-85
2022/01/25 10:11:16;;;;;;;;;;;0.40;99.90;;;;;;4998952;28;20377;-88
2022/01/25 10:13:43;;;;;;;;;;;0.30;99.90;;;;;;4979093;28;20027;-87
2022/01/25 10:16:10;;;;;;;;;;;0.50;99.90;;;;;;4991730;28;20016;-86
2022/01/25 10:18:41;;;;;;;;;;;0.50;99.90;;;;;;4990922;28;20009;-87
2022/01/25 10:21:11;;;;;;;;;;;0.40;99.90;;;;;;4982509;28;19941;-86
2022/01/25 10:23:37;;;;;;;;;;;0.60;99.90;;;;;;4999685;28;19925;-88
2022/01/25 10:26:03;;;;;;;;;;;0.60;99.90;;;;;;4995328;28;20069;-87
2022/01/25 10:28:29;;;;;;;;;;;0.50;99.90;;;;;;4998732;28;20076;-87
2022/01/25 10:30:59;;;;;;;;;;;0.50;99.90;;;;;;4983407;28;19932;-86
2022/01/25 10:33:42;;;;;;;;;;;0.40;99.90;;;;;;4991309;28;20448;-87
2022/01/25 10:36:13;;;;;;;;;;;0.60;99.90;;;;;;4978580;28;19925;-88
2022/01/25 10:38:40;;;;;;;;;;;0.60;99.90;;;;;;4994473;28;19929;-87
2022/01/25 10:41:07;;;;;;;;;;;0.60;99.90;;;;;;4993562;28;19945;-87
2022/01/25 10:43:34;;;;;;;;;;;0.80;99.90;;;;;;4978089;28;19925;-89
2022/01/25 10:46:18;;;;;;;;;;;0.80;99.90;;;;;;4981165;28;19941;-86
2022/01/25 10:48:48;;;;;;;;;;;1.00;99.90;;;;;;4998197;28;19967;-89
2022/01/25 10:51:15;;;;;;;;;;;0.90;99.90;;;;;;4999312;28;19913;-88
2022/01/25 10:53:41;;;;;;;;;;;0.90;99.90;;;;;;5000446;28;19944;-85
2022/01/25 10:56:07;;;;;;;;;;;0.60;99.90;;;;;;4995487;28;20440;-87
2022/01/25 10:58:38;;;;;;;;;;;0.40;99.90;;;;;;4995762;28;19929;-87
2022/01/25 11:01:03;;;;;;;;;;;0.60;99.90;;;;;;4988598;28;19932;-89
2022/01/25 11:03:43;;;;;;;;;;;0.60;99.90;;;;;;4983706;28;19922;-87
2022/01/25 11:06:08;;;;;;;;;;;0.70;99.90;;;;;;4995307;28;19921;-87
2022/01/25 11:08:36;;;;;;;;;;;0.90;99.90;;;;;;4991777;28;19924;-89
2022/01/25 11:11:03;;;;;;;;;;;0.80;99.90;;;;;;4985944;28;19941;-86
2022/01/25 11:15:54;;;;;;;;;;;0.70;99.90;;;;;;4996771;28;19925;-86
2022/01/25 11:18:20;;;;;;;;;;;0.60;99.90;;;;;;4993051;28;19961;-88
2022/01/25 11:20:46;;;;;;;;;;;0.80;99.90;;;;;;4981497;28;19945;-88
2022/01/25 11:23:12;;;;;;;;;;;0.90;99.90;;;;;;4985165;28;20403;-86
2022/01/25 11:25:39;;;;;;;;;;;0.90;99.90;;;;;;4991444;28;19937;-86
2022/01/25 11:28:05;;;;;;;;;;;0.90;99.90;;;;;;4992589;28;20361;-88
2022/01/25 11:30:31;;;;;;;;;;;0.90;99.90;;;;;;4975138;28;19937;-88
2022/01/25 11:32:56;;;;;;;;;;;0.90;99.90;;;;;;4991818;28;19968;-86
2022/01/25 11:35:25;;;;;;;;;;;0.90;99.90;;;;;;4986578;28;20036;-86
2022/01/25 11:37:50;;;;;;;;;;;1.10;99.90;;;;;;4974104;28;19976;-87
2022/01/25 11:40:26;;;;;;;;;;;1.00;99.90;;;;;;4992014;28;19918;-86
2022/01/25 11:42:54;;;;;;;;;;;0.90;99.90;;;;;;4996857;28;20296;-88
2022/01/25 11:45:20;;;;;;;;;;;1.00;99.90;;;;;;4975873;28;20424;-87
2022/01/25 11:47:50;;;;;;;;;;;1.20;99.90;;;;;;4992313;28;19922;-88
2022/01/25 11:50:16;;;;;;;;;;;1.30;99.90;;;;;;4990986;28;19918;-85
2022/01/25 11:52:49;;;;;;;;;;;1.30;99.90;;;;;;4995558;28;19921;-88
2022/01/25 11:55:24;;;;;;;;;;;1.20;99.90;;;;;;5006975;28;19981;-86
2022/01/25 11:57:56;;;;;;;;;;;1.20;99.90;;;;;;5006207;28;19922;-87
2022/01/25 12:00:34;;;;;;;;;;;0.90;99.90;;;;;;5000484;28;19929;-84
2022/01/25 12:03:01;;;;;;;;;;;0.80;99.90;;;;;;4991108;28;19925;-86
2022/01/25 12:05:27;;;;;;;;;;;1.10;99.90;;;;;;4978624;28;19925;-86
2022/01/25 12:08:06;;;;;;;;;;;1.10;99.90;;;;;;4976668;28;19917;-85
2022/01/25 12:10:35;;;;;;;;;;;1.20;99.90;;;;;;4992442;28;19991;-87
2022/01/25 12:13:10;;;;;;;;;;;1.20;99.90;;;;;;4981774;28;20382;-85
2022/01/25 12:15:36;;;;;;;;;;;1.10;99.90;;;;;;4994426;28;19918;-86
2022/01/25 12:18:02;;;;;;;;;;;1.20;99.90;;;;;;4980157;28;19973;-86
2022/01/25 12:20:28;;;;;;;;;;;1.30;99.90;;;;;;4994576;28;19914;-88
2022/01/25 12:23:10;;;;;;;;;;;1.40;99.90;;;;;;4984267;28;20063;-87
2022/01/25 12:25:57;;;;;;;;;;;1.40;99.90;;;;;;4972731;28;19918;-84
2022/01/25 12:28:28;;;;;;;;;;;1.40;99.90;;;;;;5004746;28;20008;-86
2022/01/25 12:30:58;;;;;;;;;;;1.50;99.90;;;;;;4999814;28;20445;-87
2022/01/25 12:33:27;;;;;;;;;;;1.40;99.90;;;;;;4990468;28;20008;-88
2022/01/25 12:36:00;;;;;;;;;;;1.40;99.90;;;;;;4994511;28;20420;-88
2022/01/25 12:38:38;;;;;;;;;;;1.40;99.90;;;;;;4997123;28;19918;-87
2022/01/25 12:41:16;;;;;;;;;;;1.30;99.90;;;;;;4995423;28;19921;-88
2022/01/25 12:43:44;;;;;;;;;;;1.50;99.90;;;;;;4986876;28;19977;-87
2022/01/25 12:46:24;;;;;;;;;;;1.60;99.90;;;;;;4989065;28;19932;-88
2022/01/25 12:49:00;;;;;;;;;;;1.60;99.90;;;;;;4973865;28;19922;-87
2022/01/25 12:51:33;;;;;;;;;;;1.90;99.90;;;;;;4996056;28;19922;-88
2022/01/25 12:54:00;;;;;;;;;;;1.80;99.90;;;;;;4981386;28;19922;-87
2022/01/25 12:56:26;;;;;;;;;;;1.80;99.90;;;;;;4982367;28;19917;-86
2022/01/25 12:58:56;;;;;;;;;;;1.80;99.90;;;;;;4987550;28;19924;-89
2022/01/25 13:01:22;;;;;;;;;;;2.00;99.90;;;;;;4990499;28;19965;-89
2022/01/25 13:03:53;;;;;;;;;;;1.90;99.90;;;;;;4991055;28;19934;-87
2022/01/25 13:06:20;;;;;;;;;;;1.60;99.90;;;;;;4979647;28;20016;-87
2022/01/25 13:08:47;;;;;;;;;;;1.70;99.90;;;;;;4977590;28;19922;-88
2022/01/25 13:11:15;;;;;;;;;;;1.30;99.90;;;;;;4995358;28;20060;-87
2022/01/25 13:13:57;;;;;;;;;;;1.60;99.90;;;;;;4985456;28;20280;-87
2022/01/25 13:16:34;;;;;;;;;;;1.70;99.90;;;;;;4976175;28;19918;-88
2022/01/25 13:19:00;;;;;;;;;;;2.20;99.90;;;;;;4994030;28;19917;-87
2022/01/25 13:21:26;;;;;;;;;;;2.20;99.90;;;;;;4980710;28;20714;-88
2022/01/25 13:23:53;;;;;;;;;;;2.40;99.90;;;;;;4998882;28;20257;-87
2022/01/25 13:26:21;;;;;;;;;;;2.30;99.90;;;;;;4974920;28;19960;-85
2022/01/25 13:31:15;;;;;;;;;;;2.40;99.90;;;;;;4988242;28;19921;-82
2022/01/25 13:33:40;;;;;;;;;;;2.60;99.90;;;;;;4972192;28;19925;-83
2022/01/25 13:36:08;;;;;;;;;;;2.60;99.90;;;;;;4996138;28;20024;-84
2022/01/25 13:38:38;;;;;;;;;;;2.90;99.90;;;;;;4993946;28;19964;-84
2022/01/25 13:41:18;;;;;;;;;;;2.80;99.90;;;;;;4992675;28;19929;-87
2022/01/25 13:46:23;;;;;;;;;;;2.60;99.90;;;;;;4991218;28;19976;-87
2022/01/25 13:48:50;;;;;;;;;;;2.30;99.90;;;;;;4981047;28;19921;-83
2022/01/25 13:51:20;;;;;;;;;;;2.30;99.90;;;;;;4997522;28;19918;-86
2022/01/25 13:53:50;;;;;;;;;;;2.40;99.90;;;;;;4999264;28;19971;-85
2022/01/25 13:56:16;;;;;;;;;;;2.60;99.90;;;;;;4987763;28;19922;-84
2022/01/25 13:58:43;;;;;;;;;;;2.80;99.90;;;;;;4986026;28;20009;-83
2022/01/25 14:01:10;;;;;;;;;;;2.90;99.90;;;;;;4992455;28;20026;-84
2022/01/25 14:04:05;;;;;;;;;;;3.30;99.90;;;;;;4988445;28;20211;-84
2022/01/25 14:06:41;;;;;;;;;;;3.20;99.90;;;;;;4987926;28;20008;-86
2022/01/25 14:09:08;;;;;;;;;;;2.90;99.90;;;;;;4994559;28;19976;-85
2022/01/25 14:11:55;;;;;;;;;;;3.00;99.90;;;;;;4979969;28;19933;-87
2022/01/25 14:25:02;;;;;;;;;;;3.10;99.90;;;;;;5002237;28;19996;-85
2022/01/25 14:27:31;;;;;;;;;;;3.40;99.90;;;;;;5007650;28;19914;-87
2022/01/25 14:29:57;;;;;;;;;;;3.70;99.90;;;;;;4982764;28;20015;-86
2022/01/25 14:32:33;;;;;;;;;;;3.50;99.90;;;;;;4999791;28;19965;-87
2022/01/25 14:35:06;;;;;;;;;;;3.50;99.90;;;;;;4993902;28;19917;-88
2022/01/25 14:37:31;;;;;;;;;;;3.30;99.90;;;;;;5001984;28;19937;-85
2022/01/25 14:40:04;;;;;;;;;;;3.10;99.90;;;;;;5002319;28;19914;-86
2022/01/25 14:42:30;;;;;;;;;;;2.90;99.90;;;;;;4999269;28;20016;-85
2022/01/25 14:45:00;;;;;;;;;;;2.70;99.90;;;;;;4980758;28;20020;-86
2022/01/25 14:47:34;;;;;;;;;;;2.80;99.90;;;;;;4988346;28;20373;-88
2022/01/25 14:50:00;;;;;;;;;;;2.60;99.90;;;;;;4997151;28;19925;-85
2022/01/25 14:52:26;;;;;;;;;;;2.60;99.90;;;;;;4993705;28;19918;-87
2022/01/25 14:54:51;;;;;;;;;;;2.60;99.90;;;;;;4986381;28;20443;-85
2022/01/25 14:57:20;;;;;;;;;;;2.50;99.90;;;;;;4997306;28;20286;-87
2022/01/25 14:59:49;;;;;;;;;;;2.50;99.90;;;;;;4974294;28;20663;-85
2022/01/25 15:02:16;;;;;;;;;;;2.50;99.90;;;;;;4989197;28;20016;-85
2022/01/25 15:04:46;;;;;;;;;;;2.50;99.90;;;;;;4960193;28;19927;-85
2022/01/25 15:07:11;;;;;;;;;;;2.50;99.90;;;;;;4959651;28;19966;-86
2022/01/25 15:09:47;;;;;;;;;;;2.50;99.90;;;;;;4961712;28;19923;-85
2022/01/25 15:12:12;;;;;;;;;;;2.60;99.90;;;;;;4973411;28;20370;-86
2022/01/25 15:14:50;;;;;;;;;;;2.80;99.90;;;;;;4942070;28;20025;-88
2022/01/25 15:17:15;;;;;;;;;;;2.70;99.90;;;;;;4953811;28;19915;-82
2022/01/25 15:19:41;;;;;;;;;;;2.60;99.90;;;;;;4958014;28;19944;-87
2022/01/25 15:22:12;;;;;;;;;;;2.30;99.90;;;;;;4966724;28;19929;-85
2022/01/25 15:24:41;;;;;;;;;;;2.20;99.90;;;;;;4961938;28;19927;-86
2022/01/25 15:27:10;;;;;;;;;;;2.00;99.90;;;;;;4953430;28;19970;-88
2022/01/25 15:29:36;;;;;;;;;;;1.90;99.90;;;;;;4957255;28;19957;-87
2022/01/25 15:32:02;;;;;;;;;;;1.70;99.90;;;;;;4955396;28;20021;-85
2022/01/25 15:34:28;;;;;;;;;;;1.50;99.90;;;;;;4959059;28;19922;-84
2022/01/25 15:36:54;;;;;;;;;;;1.50;99.90;;;;;;4978511;28;19973;-86
2022/01/25 15:39:20;;;;;;;;;;;1.50;99.90;;;;;;4968912;28;19914;-83
2022/01/25 15:41:48;;;;;;;;;;;1.30;99.90;;;;;;4958188;28;19928;-83
2022/01/25 15:44:15;;;;;;;;;;;1.30;99.90;;;;;;4954569;28;20390;-87
2022/01/25 15:49:16;;;;;;;;;;;1.10;99.90;;;;;;4951690;29;19993;-86
2022/01/25 15:51:42;;;;;;;;;;;1.00;99.90;;;;;;4952982;28;19918;-87
2022/01/25 15:54:08;;;;;;;;;;;0.90;99.90;;;;;;4962339;28;19922;-85
2022/01/25 15:56:34;;;;;;;;;;;0.80;99.90;;;;;;4958084;28;19914;-87
2022/01/25 15:58:59;;;;;;;;;;;0.70;99.90;;;;;;4955470;28;19929;-87
2022/01/25 16:01:25;;;;;;;;;;;0.60;99.90;;;;;;4952554;28;20002;-86
2022/01/25 16:03:52;;;;;;;;;;;0.50;99.90;;;;;;4970219;28;19925;-86
2022/01/25 16:06:18;;;;;;;;;;;0.30;99.90;;;;;;4974957;28;19922;-88
2022/01/25 16:08:44;;;;;;;;;;;0.20;99.90;;;;;;4987410;28;19967;-85
2022/01/25 16:11:18;;;;;;;;;;;0.10;99.90;;;;;;4991068;28;20257;-87
2022/01/25 16:13:44;;;;;;;;;;;0.10;99.90;;;;;;4983245;28;19925;-87
2022/01/25 16:16:10;;;;;;;;;;;0.00;99.90;;;;;;4991815;28;19948;-87
2022/01/25 16:18:38;;;;;;;;;;;0.10;99.90;;;;;;4996933;28;20377;-87
2022/01/25 16:21:03;;;;;;;;;;;0.00;99.90;;;;;;5000745;28;19929;-89
2022/01/25 16:23:29;;;;;;;;;;;-0.10;99.90;;;;;;5003811;28;20517;-88
2022/01/25 16:25:54;;;;;;;;;;;-0.30;99.90;;;;;;4978552;28;20025;-88
2022/01/25 16:28:20;;;;;;;;;;;-0.40;99.90;;;;;;4996811;28;19922;-87
2022/01/25 16:30:46;;;;;;;;;;;-0.40;99.90;;;;;;4964294;28;19925;-86
2022/01/25 16:33:11;;;;;;;;;;;-0.50;99.90;;;;;;4993389;28;20666;-87
2022/01/25 16:35:37;;;;;;;;;;;-0.50;99.90;;;;;;4983513;28;19929;-87